createdAt,value
2022-08-17T00:00:16.575Z,39.54
2022-08-17T00:03:01.281Z,39.87
2022-08-17T00:05:32.192Z,39.54
2022-08-17T00:07:59.621Z,39.65
2022-08-17T00:10:27.065Z,39.28
2022-08-17T00:12:54.214Z,39.46
2022-08-17T00:15:22.913Z,40.03
2022-08-17T00:17:51.547Z,39.71
2022-08-17T00:20:19.346Z,39.92
2022-08-17T00:22:50.474Z,39.92
2022-08-17T00:25:30.926Z,39.63
2022-08-17T00:27:58.116Z,39.54
2022-08-17T00:30:25.134Z,39.79
2022-08-17T00:33:22.893Z,40.27
2022-08-17T00:35:40.661Z,39.97
2022-08-17T00:38:08.387Z,39.80
2022-08-17T00:40:44.607Z,39.70
2022-08-17T00:43:36.559Z,39.95
2022-08-17T00:46:13.880Z,40.32
2022-08-17T00:48:42.051Z,39.99
2022-08-17T00:51:20.605Z,40.10
2022-08-17T00:53:57.954Z,40.39
2022-08-17T00:56:30.390Z,40.06
2022-08-17T00:58:58.011Z,40.20
2022-08-17T01:01:25.507Z,40.34
2022-08-17T01:03:55.626Z,39.95
2022-08-17T01:06:28.393Z,39.70
2022-08-17T01:08:57.922Z,39.88
2022-08-17T01:11:25.945Z,39.83
2022-08-17T01:13:52.861Z,39.90
2022-08-17T01:16:29.218Z,40.16
2022-08-17T01:19:00.371Z,39.74
2022-08-17T01:21:45.821Z,39.70
2022-08-17T01:24:12.761Z,39.23
2022-08-17T01:26:41.430Z,39.33
2022-08-17T01:29:09.378Z,39.30
2022-08-17T01:31:41.267Z,39.12
2022-08-17T01:34:10.702Z,39.14
2022-08-17T01:36:40.521Z,38.72
2022-08-17T01:39:11.997Z,37.87
2022-08-17T01:41:40.900Z,38.42
2022-08-17T01:44:11.562Z,38.13
2022-08-17T01:46:38.598Z,37.97
2022-08-17T01:49:09.489Z,38.12
2022-08-17T01:51:37.331Z,37.90
2022-08-17T01:54:08.569Z,37.26
2022-08-17T01:56:54.110Z,37.02
2022-08-17T01:59:21.343Z,38.00
2022-08-17T02:01:48.401Z,37.46
2022-08-17T02:04:15.671Z,37.68
2022-08-17T02:06:53.638Z,37.25
2022-08-17T02:09:29.796Z,37.05
2022-08-17T02:11:59.342Z,37.33
2022-08-17T02:14:26.279Z,36.96
2022-08-17T02:16:53.866Z,36.90
2022-08-17T02:19:20.896Z,37.19
2022-08-17T02:21:50.408Z,36.64
2022-08-17T02:24:58.570Z,36.98
2022-08-17T02:27:13.596Z,37.10
2022-08-17T02:29:40.449Z,37.02
2022-08-17T02:32:28.243Z,36.82
2022-08-17T02:34:57.435Z,36.83
2022-08-17T02:37:25.721Z,36.80
2022-08-17T02:39:52.750Z,36.60
2022-08-17T02:42:30.508Z,36.63
2022-08-17T02:44:57.685Z,37.10
2022-08-17T02:47:25.310Z,36.90
2022-08-17T02:49:55.499Z,36.25
2022-08-17T02:52:42.506Z,36.62
2022-08-17T02:55:17.936Z,36.60
2022-08-17T02:57:45.346Z,36.58
2022-08-17T03:00:16.956Z,36.90
2022-08-17T03:02:45.571Z,36.48
2022-08-17T03:05:15.960Z,36.38
2022-08-17T03:07:43.001Z,36.15
2022-08-17T03:10:11.179Z,36.61
2022-08-17T03:12:40.248Z,36.56
2022-08-17T03:15:10.710Z,36.16
2022-08-17T03:17:37.811Z,36.04
2022-08-17T03:20:06.339Z,35.95
2022-08-17T03:22:41.448Z,35.87
2022-08-17T03:25:19.589Z,35.95
2022-08-17T03:27:51.442Z,35.51
2022-08-17T03:30:18.434Z,35.55
2022-08-17T03:32:50.016Z,35.47
2022-08-17T03:35:20.241Z,35.64
2022-08-17T03:37:56.983Z,35.21
2022-08-17T03:40:55.038Z,35.29
2022-08-17T03:43:15.684Z,35.22
2022-08-17T03:45:43.253Z,35.89
2022-08-17T03:48:11.099Z,35.66
2022-08-17T03:50:37.992Z,35.02
2022-08-17T03:53:10.544Z,35.31
2022-08-17T03:55:38.729Z,35.47
2022-08-17T03:58:05.588Z,35.04
2022-08-17T04:00:32.466Z,35.08
2022-08-17T04:02:59.326Z,35.01
2022-08-17T04:05:26.275Z,34.82
2022-08-17T04:07:53.063Z,34.92
2022-08-17T04:10:22.714Z,34.80
2022-08-17T04:12:54.982Z,34.36
2022-08-17T04:15:22.480Z,34.81
2022-08-17T04:17:49.341Z,34.70
2022-08-17T04:20:19.126Z,34.32
2022-08-17T04:23:17.124Z,34.48
2022-08-17T04:25:47.750Z,34.99
2022-08-17T04:28:16.074Z,35.02
2022-08-17T04:30:44.560Z,35.29
2022-08-17T04:33:14.997Z,34.57
2022-08-17T04:35:45.956Z,34.59
2022-08-17T04:38:16.060Z,34.58
2022-08-17T04:40:44.149Z,33.99
2022-08-17T04:43:12.723Z,34.38
2022-08-17T04:46:00.580Z,33.96
2022-08-17T04:48:37.083Z,34.13
2022-08-17T04:51:11.149Z,34.74
2022-08-17T04:53:40.898Z,33.69
2022-08-17T04:56:16.033Z,34.10
2022-08-17T04:58:53.439Z,34.75
2022-08-17T05:01:23.769Z,33.85
2022-08-17T05:03:58.674Z,34.19
2022-08-17T05:06:27.616Z,34.67
2022-08-17T05:08:55.657Z,33.70
2022-08-17T05:11:24.592Z,34.05
2022-08-17T05:13:51.612Z,34.05
2022-08-17T05:16:20.195Z,34.21
2022-08-17T05:18:47.278Z,34.06
2022-08-17T05:21:18.131Z,34.16
2022-08-17T05:23:47.161Z,34.42
2022-08-17T05:26:26.973Z,34.77
2022-08-17T05:29:02.505Z,35.28
2022-08-17T05:31:42.773Z,35.32
2022-08-17T05:34:09.608Z,35.58
2022-08-17T05:36:43.191Z,34.54
2022-08-17T05:39:15.896Z,35.04
2022-08-17T05:41:46.065Z,35.19
2022-08-17T05:44:12.841Z,34.64
2022-08-17T05:46:43.738Z,34.61
2022-08-17T05:49:14.195Z,33.88
2022-08-17T05:52:00.004Z,34.49
2022-08-17T05:54:46.393Z,34.22
2022-08-17T05:57:22.185Z,34.90
2022-08-17T06:00:30.158Z,35.54
2022-08-17T06:03:15.441Z,35.53
2022-08-17T06:05:54.454Z,34.90
2022-08-17T06:08:39.754Z,34.88
2022-08-17T06:11:28.420Z,34.64
2022-08-17T06:14:32.990Z,34.87
2022-08-17T06:17:06.261Z,35.34
2022-08-17T06:19:40.013Z,35.66
2022-08-17T06:22:11.097Z,35.51
2022-08-17T06:24:48.514Z,35.93
2022-08-17T06:27:47.522Z,36.32
2022-08-17T06:30:27.222Z,35.99
2022-08-17T06:33:19.341Z,36.37
2022-08-17T06:35:56.676Z,35.75
2022-08-17T06:38:49.797Z,35.74
2022-08-17T06:41:39.607Z,35.99
2022-08-17T06:44:12.927Z,35.32
2022-08-17T06:47:11.047Z,34.72
2022-08-17T06:49:55.252Z,34.09
2022-08-17T06:52:45.933Z,33.55
2022-08-17T06:55:37.302Z,33.22
2022-08-17T06:58:16.165Z,32.99
2022-08-17T07:00:47.675Z,32.80
2022-08-17T07:04:00.445Z,32.93
2022-08-17T07:06:40.786Z,33.46
2022-08-17T07:09:48.783Z,33.55
2022-08-17T07:12:21.715Z,33.04
2022-08-17T07:15:03.696Z,33.00
2022-08-17T07:17:47.869Z,32.62
2022-08-17T07:20:20.395Z,32.88
2022-08-17T07:23:05.213Z,32.65
2022-08-17T07:25:32.563Z,32.55
2022-08-17T07:28:03.175Z,32.81
2022-08-17T07:30:44.616Z,32.90
2022-08-17T07:33:34.707Z,32.77
2022-08-17T07:36:01.668Z,32.55
2022-08-17T07:38:31.264Z,32.98
2022-08-17T07:40:58.273Z,33.64
2022-08-17T07:43:47.834Z,33.62
2022-08-17T07:46:18.929Z,33.63
2022-08-17T07:48:53.211Z,34.24
2022-08-17T07:51:24.973Z,34.56
2022-08-17T07:53:53.885Z,34.97
2022-08-17T07:56:50.198Z,35.29
2022-08-17T07:59:23.757Z,36.00
2022-08-17T08:01:57.722Z,35.89
2022-08-17T08:07:19.938Z,36.69
2022-08-17T08:09:59.734Z,37.66
2022-08-17T08:12:40.529Z,36.99
2022-08-17T08:15:13.261Z,37.08
2022-08-17T08:18:00.836Z,36.52
2022-08-17T08:20:53.007Z,36.97
2022-08-17T08:23:29.023Z,36.59
2022-08-17T08:26:18.617Z,37.00
2022-08-17T08:29:10.395Z,37.64
2022-08-17T08:31:55.268Z,37.34
2022-08-17T08:34:44.618Z,37.30
2022-08-17T08:37:44.320Z,37.46
2022-08-17T08:40:32.867Z,38.02
2022-08-17T08:43:05.592Z,37.51
2022-08-17T08:45:52.634Z,38.33
2022-08-17T08:48:56.855Z,37.99
2022-08-17T08:51:51.638Z,38.58
2022-08-17T08:54:52.207Z,38.34
2022-08-17T08:57:32.658Z,38.69
2022-08-17T09:00:17.630Z,38.53
2022-08-17T09:03:28.637Z,37.88
2022-08-17T09:06:33.527Z,37.49
2022-08-17T09:09:34.692Z,37.01
2022-08-17T09:12:31.936Z,36.67
2022-08-17T09:15:12.355Z,36.70
2022-08-17T09:17:47.473Z,36.41
2022-08-17T09:20:53.350Z,36.09
2022-08-17T09:23:41.938Z,35.91
2022-08-17T09:26:25.529Z,36.14
2022-08-17T09:28:56.901Z,35.50
2022-08-17T09:31:49.810Z,35.94
2022-08-17T09:34:29.601Z,35.39
2022-08-17T09:37:27.994Z,34.98
2022-08-17T09:40:07.977Z,35.61
2022-08-17T09:43:04.819Z,36.13
2022-08-17T09:45:42.695Z,35.13
2022-08-17T09:48:25.747Z,35.53
2022-08-17T09:51:09.023Z,34.99
2022-08-17T09:53:38.179Z,35.49
2022-08-17T09:56:33.422Z,35.11
2022-08-17T09:59:37.096Z,35.48
2022-08-17T10:02:43.112Z,35.34
2022-08-17T10:05:32.732Z,34.81
2022-08-17T10:08:13.901Z,34.98
2022-08-17T10:11:08.713Z,34.70
2022-08-17T10:13:53.492Z,34.52
2022-08-17T10:16:32.854Z,33.85
2022-08-17T10:19:23.205Z,33.42
2022-08-17T10:22:01.222Z,32.81
2022-08-17T10:25:21.068Z,32.92
2022-08-17T10:27:51.486Z,32.16
2022-08-17T10:30:45.350Z,32.58
2022-08-17T10:33:40.784Z,33.19
2022-08-17T10:36:17.348Z,32.22
2022-08-17T10:38:47.921Z,32.85
2022-08-17T10:41:33.890Z,33.26
2022-08-17T10:44:39.723Z,33.09
2022-08-17T10:47:12.176Z,32.92
2022-08-17T10:49:42.522Z,32.89
2022-08-17T10:52:25.125Z,33.19
2022-08-17T10:54:54.900Z,33.03
2022-08-17T10:57:31.674Z,33.17
2022-08-17T11:00:01.292Z,33.01
2022-08-17T11:02:40.010Z,32.30
2022-08-17T11:05:26.129Z,32.73
2022-08-17T11:08:23.201Z,33.01
2022-08-17T11:11:19.477Z,33.72
2022-08-17T11:14:31.228Z,32.72
2022-08-17T11:17:25.151Z,32.89
2022-08-17T11:20:24.389Z,33.18
2022-08-17T11:23:32.981Z,33.41
2022-08-17T11:26:03.336Z,33.36
2022-08-17T11:28:34.173Z,33.96
2022-08-17T11:31:23.585Z,34.49
2022-08-17T11:34:22.546Z,33.83
2022-08-17T11:37:07.068Z,34.04
2022-08-17T11:39:43.431Z,33.64
2022-08-17T11:42:16.516Z,33.12
2022-08-17T11:45:06.312Z,33.80
2022-08-17T11:48:16.426Z,33.56
2022-08-17T11:51:09.893Z,33.74
2022-08-17T11:53:43.004Z,34.02
2022-08-17T11:56:29.918Z,33.86
2022-08-17T11:58:56.957Z,34.43
2022-08-17T12:01:23.743Z,34.29
2022-08-17T12:04:13.891Z,34.25
2022-08-17T12:06:53.164Z,34.10
2022-08-17T12:09:32.476Z,34.39
2022-08-17T12:12:14.451Z,35.01
2022-08-17T12:15:11.136Z,35.70
2022-08-17T12:17:41.550Z,35.63
2022-08-17T12:20:19.694Z,36.51
2022-08-17T12:23:08.232Z,36.48
2022-08-17T12:25:46.178Z,35.86
2022-08-17T12:28:27.096Z,36.15
2022-08-17T12:31:01.437Z,36.21
2022-08-17T12:33:29.076Z,36.38
2022-08-17T12:36:03.091Z,36.34
2022-08-17T12:38:35.771Z,36.13
2022-08-17T12:41:06.803Z,36.45
2022-08-17T12:43:33.745Z,36.85
2022-08-17T12:46:17.590Z,36.86
2022-08-17T12:48:59.168Z,37.94
2022-08-17T12:51:27.738Z,38.23
2022-08-17T12:53:55.424Z,38.41
2022-08-17T12:56:22.573Z,39.39
2022-08-17T12:58:52.255Z,39.14
2022-08-17T13:01:19.705Z,39.14
2022-08-17T13:03:57.435Z,39.40
2022-08-17T13:06:31.734Z,39.51
2022-08-17T13:09:11.829Z,39.99
2022-08-17T13:11:52.306Z,41.13
2022-08-17T13:14:19.851Z,40.25
2022-08-17T13:16:54.521Z,39.71
2022-08-17T13:19:39.979Z,38.62
2022-08-17T13:22:12.104Z,38.68
2022-08-17T13:24:51.446Z,39.38
2022-08-17T13:27:22.768Z,39.50
2022-08-17T13:29:53.473Z,39.28
2022-08-17T13:32:34.422Z,38.90
2022-08-17T13:35:14.282Z,38.80
2022-08-17T13:37:58.829Z,39.17
2022-08-17T13:40:30.097Z,38.54
2022-08-17T13:42:57.079Z,38.33
2022-08-17T13:45:36.924Z,38.13
2022-08-17T13:48:11.938Z,38.49
2022-08-17T13:50:43.772Z,38.64
2022-08-17T13:53:25.661Z,38.57
2022-08-17T13:55:56.537Z,37.83
2022-08-17T13:58:28.967Z,38.30
2022-08-17T14:00:56.252Z,37.64
2022-08-17T14:03:24.195Z,37.60
2022-08-17T14:05:52.416Z,37.59
2022-08-17T14:08:20.766Z,37.18
2022-08-17T14:10:58.512Z,37.57
2022-08-17T14:13:28.621Z,38.01
2022-08-17T14:15:57.955Z,37.94
2022-08-17T14:18:55.263Z,37.97
2022-08-17T14:21:12.013Z,37.59
2022-08-17T14:23:41.120Z,37.83
2022-08-17T14:26:33.365Z,37.37
2022-08-17T14:29:01.346Z,36.96
2022-08-17T14:31:28.213Z,37.54
2022-08-17T14:33:57.687Z,37.65
2022-08-17T14:36:24.580Z,37.87
2022-08-17T14:38:51.477Z,37.71
2022-08-17T14:41:22.170Z,37.87
2022-08-17T14:43:51.066Z,37.83
2022-08-17T14:46:41.440Z,37.51
2022-08-17T14:49:09.254Z,37.42
2022-08-17T14:51:43.627Z,37.43
2022-08-17T14:54:32.978Z,37.75
2022-08-17T14:57:22.567Z,38.22
2022-08-17T14:59:51.757Z,38.28
2022-08-17T15:02:29.994Z,38.60
2022-08-17T15:05:03.791Z,38.62
2022-08-17T15:07:31.648Z,38.91
2022-08-17T15:10:00.868Z,39.47
2022-08-17T15:12:32.713Z,39.09
2022-08-17T15:15:05.416Z,39.75
2022-08-17T15:17:44.837Z,40.19
2022-08-17T15:20:19.308Z,40.49
2022-08-17T15:22:47.823Z,40.58
2022-08-17T15:25:17.871Z,40.71
2022-08-17T15:27:44.842Z,41.85
2022-08-17T15:30:12.818Z,42.42
2022-08-17T15:32:41.314Z,42.30
2022-08-17T15:35:18.591Z,43.25
2022-08-17T15:37:45.466Z,42.75
2022-08-17T15:40:13.087Z,42.71
2022-08-17T15:42:40.022Z,42.65
2022-08-17T15:45:13.030Z,44.27
2022-08-17T15:47:43.388Z,43.84
2022-08-17T15:50:10.788Z,43.66
2022-08-17T15:52:37.747Z,43.33
2022-08-17T15:55:06.486Z,42.53
2022-08-17T15:57:33.557Z,42.53
2022-08-17T16:00:00.423Z,43.02
2022-08-17T16:03:46.740Z,43.07
2022-08-17T16:05:21.309Z,42.67
2022-08-17T16:07:52.728Z,42.82
2022-08-17T16:10:35.447Z,42.56
2022-08-17T16:13:04.420Z,42.90
2022-08-17T16:15:32.209Z,43.18
2022-08-17T16:17:59.665Z,42.68
2022-08-17T16:20:27.010Z,42.33
2022-08-17T16:22:55.438Z,42.47
2022-08-17T16:25:49.037Z,42.14
2022-08-17T16:28:15.114Z,41.74
2022-08-17T16:30:42.831Z,42.48
2022-08-17T16:33:12.999Z,42.72
2022-08-17T16:38:31.168Z,43.48
2022-08-17T16:40:59.855Z,44.31
2022-08-17T16:43:26.989Z,44.74
2022-08-17T16:45:56.788Z,44.47
2022-08-17T16:48:23.779Z,45.65
2022-08-17T16:51:03.294Z,45.54
2022-08-17T16:53:31.600Z,46.11
2022-08-17T16:55:58.409Z,46.37
2022-08-17T16:58:25.354Z,45.61
2022-08-17T17:00:52.286Z,46.05
2022-08-17T17:03:25.168Z,45.91
2022-08-17T17:06:03.634Z,45.67
2022-08-17T17:08:53.843Z,45.70
2022-08-17T17:11:30.658Z,46.08
2022-08-17T17:13:59.417Z,45.69
2022-08-17T17:16:29.315Z,45.57
2022-08-17T17:19:11.498Z,45.80
2022-08-17T17:21:51.349Z,45.38
2022-08-17T17:24:32.861Z,44.56
2022-08-17T17:27:08.628Z,44.28
2022-08-17T17:30:13.238Z,44.77
2022-08-17T17:32:52.727Z,44.88
2022-08-17T17:35:33.751Z,44.92
2022-08-17T17:38:15.512Z,45.15
2022-08-17T17:40:46.856Z,45.94
2022-08-17T17:43:38.812Z,46.28
2022-08-17T17:46:26.565Z,46.12
2022-08-17T17:52:10.311Z,45.55
2022-08-17T17:54:48.266Z,45.53
2022-08-17T17:57:15.300Z,45.60
2022-08-17T17:59:54.571Z,45.62
2022-08-17T18:02:53.155Z,45.47
2022-08-17T18:05:44.407Z,45.96
2022-08-17T18:08:11.581Z,46.48
2022-08-17T18:10:48.942Z,47.05
2022-08-17T18:13:46.593Z,46.86
2022-08-17T18:16:15.286Z,46.58
2022-08-17T18:18:46.299Z,47.24
2022-08-17T18:21:47.445Z,46.21
2022-08-17T18:24:14.851Z,46.51
2022-08-17T18:26:46.787Z,46.92
2022-08-17T18:29:32.900Z,47.05
2022-08-17T18:32:24.470Z,47.38
2022-08-17T18:35:01.360Z,46.97
2022-08-17T18:37:44.997Z,47.37
2022-08-17T18:40:17.985Z,47.03
2022-08-17T18:43:00.088Z,47.12
2022-08-17T18:45:39.659Z,47.62
2022-08-17T18:48:26.028Z,46.58
2022-08-17T18:50:58.136Z,47.25
2022-08-17T18:53:39.887Z,46.62
2022-08-17T18:56:30.998Z,46.98
2022-08-17T18:59:10.945Z,46.88
2022-08-17T19:01:59.879Z,46.81
2022-08-17T19:04:35.375Z,46.54
2022-08-17T19:07:07.482Z,46.90
2022-08-17T19:09:40.399Z,46.38
2022-08-17T19:12:11.967Z,46.53
2022-08-17T19:14:40.478Z,46.83
2022-08-17T19:17:29.316Z,47.04
2022-08-17T19:20:06.818Z,46.41
2022-08-17T19:22:56.647Z,46.34
2022-08-17T19:25:31.611Z,47.21
2022-08-17T19:28:22.400Z,47.27
2022-08-17T19:31:03.214Z,47.86
2022-08-17T19:33:34.831Z,48.66
2022-08-17T19:36:22.166Z,47.81
2022-08-17T19:38:53.847Z,48.36
2022-08-17T19:42:52.241Z,48.29
2022-08-17T19:44:49.084Z,48.42
2022-08-17T19:48:04.564Z,48.62
2022-08-17T19:50:54.113Z,48.58
2022-08-17T19:54:05.498Z,48.10
2022-08-17T19:56:54.951Z,48.81
2022-08-17T19:59:59.051Z,48.92
2022-08-17T20:03:00.108Z,48.45
2022-08-17T20:06:09.226Z,48.75
2022-08-17T20:08:39.563Z,49.13
2022-08-17T20:11:15.548Z,48.94
2022-08-17T20:13:50.011Z,49.16
2022-08-17T20:16:19.432Z,48.99
2022-08-17T20:18:59.507Z,49.35
2022-08-17T20:21:52.185Z,49.42
2022-08-17T20:24:30.310Z,49.35
2022-08-17T20:27:09.153Z,49.53
2022-08-17T20:30:17.393Z,49.57
2022-08-17T20:32:59.317Z,49.33
2022-08-17T20:35:33.393Z,49.27
2022-08-17T20:38:05.427Z,49.30
2022-08-17T20:40:57.099Z,49.99
2022-08-17T20:43:29.976Z,50.27
2022-08-17T20:46:16.171Z,50.03
2022-08-17T20:48:57.971Z,49.89
2022-08-17T20:51:24.848Z,50.53
2022-08-17T20:53:51.599Z,49.65
2022-08-17T20:56:44.793Z,49.92
2022-08-17T20:59:20.669Z,49.96
2022-08-17T21:02:03.526Z,49.93
2022-08-17T21:04:44.164Z,49.03
2022-08-17T21:07:43.640Z,49.24
2022-08-17T21:10:26.062Z,49.93
2022-08-17T21:12:55.802Z,50.03
2022-08-17T21:15:47.552Z,49.86
2022-08-17T21:18:49.719Z,50.04
2022-08-17T21:21:40.469Z,49.61
2022-08-17T21:24:34.800Z,49.88
2022-08-17T21:27:26.220Z,49.82
2022-08-17T21:30:02.241Z,50.13
2022-08-17T21:32:36.032Z,49.69
2022-08-17T21:35:11.852Z,50.17
2022-08-17T21:37:38.801Z,49.85
2022-08-17T21:40:11.649Z,50.40
2022-08-17T21:42:49.471Z,50.38
2022-08-17T21:45:28.976Z,50.17
2022-08-17T21:48:20.490Z,50.53
2022-08-17T21:51:38.734Z,50.71
2022-08-17T21:54:27.370Z,51.07
2022-08-17T21:56:54.733Z,50.58
2022-08-17T21:59:24.606Z,50.58
2022-08-17T22:01:54.657Z,50.81
2022-08-17T22:04:27.740Z,50.15
2022-08-17T22:06:57.607Z,49.96
2022-08-17T22:09:34.578Z,49.88
2022-08-17T22:12:12.301Z,49.81
2022-08-17T22:14:59.700Z,49.77
2022-08-17T22:17:37.312Z,49.81
2022-08-17T22:20:12.280Z,50.36
2022-08-17T22:23:01.456Z,50.10
2022-08-17T22:25:29.106Z,49.58
2022-08-17T22:27:59.458Z,49.77
2022-08-17T22:30:58.158Z,49.84
2022-08-17T22:33:33.199Z,49.60
2022-08-17T22:36:10.826Z,49.59
2022-08-17T22:38:38.528Z,48.72
2022-08-17T22:41:36.531Z,49.40
2022-08-17T22:44:49.858Z,48.62
2022-08-17T22:47:16.804Z,47.98
2022-08-17T22:50:00.139Z,48.11
2022-08-17T22:52:37.397Z,48.49
2022-08-17T22:55:16.138Z,48.68
2022-08-17T22:57:47.465Z,48.54
2022-08-17T23:00:33.384Z,48.12
2022-08-17T23:03:21.852Z,47.96
2022-08-17T23:06:09.341Z,47.28
2022-08-17T23:08:38.312Z,47.66
2022-08-17T23:11:06.610Z,47.62
2022-08-17T23:13:33.554Z,47.49
2022-08-17T23:16:00.528Z,47.37
2022-08-17T23:18:27.545Z,47.00
2022-08-17T23:20:54.539Z,47.35
2022-08-17T23:23:23.692Z,47.52
2022-08-17T23:25:50.794Z,47.07
2022-08-17T23:28:18.874Z,46.82
2022-08-17T23:30:45.781Z,46.99
2022-08-17T23:33:23.021Z,47.37
2022-08-17T23:35:56.067Z,47.02
2022-08-17T23:38:23.011Z,46.92
2022-08-17T23:40:53.963Z,47.28
2022-08-17T23:43:25.336Z,46.65
2022-08-17T23:45:56.690Z,46.96
2022-08-17T23:48:32.465Z,46.61
2022-08-17T23:51:26.909Z,47.45
2022-08-17T23:53:58.199Z,47.00
2022-08-17T23:56:25.149Z,46.79
2022-08-17T23:58:54.061Z,46.94
